sensor_id;sensor_type;location;lat;lon;timestamp;pressure;altitude;pressure_sealevel;temperature;humidity
69214;BME280;56325;47.030;18.518;2022-08-03T00:01:39;100505.25;;;20.70;51.82
69214;BME280;56325;47.030;18.518;2022-08-03T00:04:43;100507.81;;;20.68;51.68
69214;BME280;56325;47.030;18.518;2022-08-03T00:07:46;100509.28;;;20.75;51.49
69214;BME280;56325;47.030;18.518;2022-08-03T00:10:53;100503.16;;;20.76;51.39
69214;BME280;56325;47.030;18.518;2022-08-03T00:13:56;100508.00;;;20.76;51.59
69214;BME280;56325;47.030;18.518;2022-08-03T00:16:59;100506.31;;;20.67;52.19
69214;BME280;56325;47.030;18.518;2022-08-03T00:20:03;100511.66;;;20.29;53.17
69214;BME280;56325;47.030;18.518;2022-08-03T00:23:26;100506.38;;;20.26;53.62
69214;BME280;56325;47.030;18.518;2022-08-03T00:26:49;100508.16;;;20.23;53.79
69214;BME280;56325;47.030;18.518;2022-08-03T00:29:52;100499.66;;;20.05;53.98
69214;BME280;56325;47.030;18.518;2022-08-03T00:33:01;100502.84;;;19.90;54.43
69214;BME280;56325;47.030;18.518;2022-08-03T00:36:06;100505.06;;;19.97;54.43
69214;BME280;56325;47.030;18.518;2022-08-03T00:39:09;100504.28;;;19.96;54.30
69214;BME280;56325;47.030;18.518;2022-08-03T00:42:13;100498.66;;;20.02;53.69
69214;BME280;56325;47.030;18.518;2022-08-03T00:45:17;100489.50;;;20.07;53.56
69214;BME280;56325;47.030;18.518;2022-08-03T00:48:21;100493.28;;;20.10;53.66
69214;BME280;56325;47.030;18.518;2022-08-03T00:51:35;100496.88;;;20.05;53.79
69214;BME280;56325;47.030;18.518;2022-08-03T00:54:39;100492.94;;;19.89;54.46
69214;BME280;56325;47.030;18.518;2022-08-03T00:57:44;100502.41;;;19.75;54.85
69214;BME280;56325;47.030;18.518;2022-08-03T01:00:48;100493.66;;;19.54;55.36
69214;BME280;56325;47.030;18.518;2022-08-03T01:03:52;100494.91;;;19.58;55.38
69214;BME280;56325;47.030;18.518;2022-08-03T01:07:06;100492.19;;;19.36;55.86
69214;BME280;56325;47.030;18.518;2022-08-03T01:10:44;100499.53;;;19.39;56.40
69214;BME280;56325;47.030;18.518;2022-08-03T01:14:10;100505.41;;;19.30;56.63
69214;BME280;56325;47.030;18.518;2022-08-03T01:21:00;100508.72;;;19.23;56.36
69214;BME280;56325;47.030;18.518;2022-08-03T01:24:21;100495.50;;;19.29;56.12
69214;BME280;56325;47.030;18.518;2022-08-03T01:31:40;100497.53;;;19.34;56.13
69214;BME280;56325;47.030;18.518;2022-08-03T01:39:04;100493.69;;;19.43;55.53
69214;BME280;56325;47.030;18.518;2022-08-03T01:42:13;100492.38;;;19.49;55.49
69214;BME280;56325;47.030;18.518;2022-08-03T01:45:20;100488.31;;;19.50;55.39
69214;BME280;56325;47.030;18.518;2022-08-03T01:48:26;100484.81;;;19.44;55.66
69214;BME280;56325;47.030;18.518;2022-08-03T01:51:32;100486.31;;;19.45;55.69
69214;BME280;56325;47.030;18.518;2022-08-03T01:54:57;100483.28;;;19.43;55.80
69214;BME280;56325;47.030;18.518;2022-08-03T01:58:02;100481.53;;;19.35;56.08
69214;BME280;56325;47.030;18.518;2022-08-03T02:01:30;100486.91;;;19.27;56.37
69214;BME280;56325;47.030;18.518;2022-08-03T02:04:55;100494.03;;;19.17;56.71
69214;BME280;56325;47.030;18.518;2022-08-03T02:08:12;100486.72;;;19.08;56.92
69214;BME280;56325;47.030;18.518;2022-08-03T02:11:19;100482.16;;;19.11;56.87
69214;BME280;56325;47.030;18.518;2022-08-03T02:14:23;100482.94;;;19.06;57.11
69214;BME280;56325;47.030;18.518;2022-08-03T02:17:32;100482.72;;;18.98;57.65
69214;BME280;56325;47.030;18.518;2022-08-03T02:20:42;100475.88;;;18.93;58.14
69214;BME280;56325;47.030;18.518;2022-08-03T02:23:49;100473.34;;;18.95;57.88
69214;BME280;56325;47.030;18.518;2022-08-03T02:26:55;100479.41;;;19.05;57.76
69214;BME280;56325;47.030;18.518;2022-08-03T02:30:06;100485.44;;;19.09;57.68
69214;BME280;56325;47.030;18.518;2022-08-03T02:33:33;100483.66;;;19.12;57.62
69214;BME280;56325;47.030;18.518;2022-08-03T02:36:44;100483.66;;;19.12;57.57
69214;BME280;56325;47.030;18.518;2022-08-03T02:39:49;100482.94;;;19.06;57.39
69214;BME280;56325;47.030;18.518;2022-08-03T02:42:58;100493.91;;;18.76;57.75
69214;BME280;56325;47.030;18.518;2022-08-03T02:46:03;100497.22;;;18.41;58.58
69214;BME280;56325;47.030;18.518;2022-08-03T02:49:12;100493.19;;;18.19;59.02
69214;BME280;56325;47.030;18.518;2022-08-03T02:53:16;100494.44;;;18.01;59.51
69214;BME280;56325;47.030;18.518;2022-08-03T02:56:24;100505.31;;;17.99;59.54
69214;BME280;56325;47.030;18.518;2022-08-03T02:59:33;100488.63;;;18.05;59.22
69214;BME280;56325;47.030;18.518;2022-08-03T03:02:48;100504.81;;;18.01;59.14
69214;BME280;56325;47.030;18.518;2022-08-03T03:06:01;100500.00;;;18.01;59.28
69214;BME280;56325;47.030;18.518;2022-08-03T03:09:32;100506.31;;;18.02;59.32
69214;BME280;56325;47.030;18.518;2022-08-03T03:12:44;100512.63;;;17.91;59.64
69214;BME280;56325;47.030;18.518;2022-08-03T03:15:50;100520.72;;;17.95;59.80
69214;BME280;56325;47.030;18.518;2022-08-03T03:18:53;100509.59;;;17.95;59.92
69214;BME280;56325;47.030;18.518;2022-08-03T03:21:59;100526.03;;;17.93;60.23
69214;BME280;56325;47.030;18.518;2022-08-03T03:25:04;100517.69;;;17.87;60.06
69214;BME280;56325;47.030;18.518;2022-08-03T03:28:09;100518.44;;;17.88;60.06
69214;BME280;56325;47.030;18.518;2022-08-03T03:31:32;100515.37;;;17.86;60.03
69214;BME280;56325;47.030;18.518;2022-08-03T03:35:00;100516.38;;;17.77;60.89
69214;BME280;56325;47.030;18.518;2022-08-03T03:38:29;100508.06;;;17.83;60.53
69214;BME280;56325;47.030;18.518;2022-08-03T03:41:33;100510.06;;;17.82;60.38
69214;BME280;56325;47.030;18.518;2022-08-03T03:44:37;100511.34;;;17.87;60.38
69214;BME280;56325;47.030;18.518;2022-08-03T03:47:42;100522.97;;;17.80;60.70
69214;BME280;56325;47.030;18.518;2022-08-03T03:50:48;100518.41;;;17.77;60.92
69214;BME280;56325;47.030;18.518;2022-08-03T03:54:00;100517.91;;;17.78;61.12
69214;BME280;56325;47.030;18.518;2022-08-03T03:57:24;100525.72;;;17.74;61.48
69214;BME280;56325;47.030;18.518;2022-08-03T04:00:29;100522.44;;;17.70;61.61
69214;BME280;56325;47.030;18.518;2022-08-03T04:03:37;100522.97;;;17.80;61.31
69214;BME280;56325;47.030;18.518;2022-08-03T04:06:40;100520.44;;;17.82;61.33
69214;BME280;56325;47.030;18.518;2022-08-03T04:10:24;100533.84;;;17.83;61.12
69214;BME280;56325;47.030;18.518;2022-08-03T04:13:52;100537.84;;;17.65;61.62
69214;BME280;56325;47.030;18.518;2022-08-03T04:17:17;100530.91;;;17.50;62.52
69214;BME280;56325;47.030;18.518;2022-08-03T04:20:23;100527.91;;;17.53;63.14
69214;BME280;56325;47.030;18.518;2022-08-03T04:23:31;100526.66;;;17.60;63.54
69214;BME280;56325;47.030;18.518;2022-08-03T04:26:38;100528.78;;;17.76;63.27
69214;BME280;56325;47.030;18.518;2022-08-03T04:29:46;100545.75;;;17.95;62.89
69214;BME280;56325;47.030;18.518;2022-08-03T04:32:51;100542.50;;;18.08;62.97
69214;BME280;56325;47.030;18.518;2022-08-03T04:35:58;100549.59;;;18.09;63.43
69214;BME280;56325;47.030;18.518;2022-08-03T04:39:26;100539.22;;;18.26;62.79
69214;BME280;56325;47.030;18.518;2022-08-03T04:42:32;100541.75;;;18.29;63.27
69214;BME280;56325;47.030;18.518;2022-08-03T04:45:56;100537.94;;;18.32;63.51
69214;BME280;56325;47.030;18.518;2022-08-03T04:49:20;100540.47;;;18.25;64.30
69214;BME280;56325;47.030;18.518;2022-08-03T04:52:44;100538.22;;;18.34;64.27
69214;BME280;56325;47.030;18.518;2022-08-03T04:56:28;100548.09;;;18.41;64.50
69214;BME280;56325;47.030;18.518;2022-08-03T04:59:51;100546.31;;;18.55;64.59
69214;BME280;56325;47.030;18.518;2022-08-03T05:03:36;100549.88;;;18.78;63.67
69214;BME280;56325;47.030;18.518;2022-08-03T05:06:59;100544.78;;;18.98;63.46
69214;BME280;56325;47.030;18.518;2022-08-03T05:10:35;100555.87;;;19.10;63.53
69214;BME280;56325;47.030;18.518;2022-08-03T05:13:38;100561.69;;;19.23;63.68
69214;BME280;56325;47.030;18.518;2022-08-03T05:16:41;100559.66;;;19.18;64.35
69214;BME280;56325;47.030;18.518;2022-08-03T05:19:46;100561.12;;;19.41;63.50
69214;BME280;56325;47.030;18.518;2022-08-03T05:22:49;100568.19;;;19.48;63.89
69214;BME280;56325;47.030;18.518;2022-08-03T05:26:12;100565.38;;;19.64;63.75
69214;BME280;56325;47.030;18.518;2022-08-03T05:29:35;100569.06;;;19.89;63.64
69214;BME280;56325;47.030;18.518;2022-08-03T05:32:59;100569.44;;;20.10;63.59
69214;BME280;56325;47.030;18.518;2022-08-03T05:36:05;100573.84;;;20.36;63.23
69214;BME280;56325;47.030;18.518;2022-08-03T05:39:27;100575.81;;;20.46;63.30
69214;BME280;56325;47.030;18.518;2022-08-03T05:42:31;100579.06;;;20.80;62.59
69214;BME280;56325;47.030;18.518;2022-08-03T05:45:54;100575.66;;;21.17;62.13
69214;BME280;56325;47.030;18.518;2022-08-03T05:49:35;100569.91;;;21.34;61.73
69214;BME280;56325;47.030;18.518;2022-08-03T05:52:39;100573.22;;;21.76;61.07
69214;BME280;56325;47.030;18.518;2022-08-03T05:56:00;100576.56;;;22.12;60.24
69214;BME280;56325;47.030;18.518;2022-08-03T05:59:16;100575.69;;;22.36;59.82
69214;BME280;56325;47.030;18.518;2022-08-03T06:02:39;100573.31;;;22.72;58.87
69214;BME280;56325;47.030;18.518;2022-08-03T06:05:45;100582.03;;;23.13;57.51
69214;BME280;56325;47.030;18.518;2022-08-03T06:09:08;100579.31;;;23.47;56.66
69214;BME280;56325;47.030;18.518;2022-08-03T06:12:15;100586.88;;;23.79;55.68
69214;BME280;56325;47.030;18.518;2022-08-03T06:15:19;100582.03;;;24.13;54.70
69214;BME280;56325;47.030;18.518;2022-08-03T06:18:43;100580.56;;;24.33;54.15
69214;BME280;56325;47.030;18.518;2022-08-03T06:22:00;100585.84;;;24.58;53.43
69214;BME280;56325;47.030;18.518;2022-08-03T06:25:25;100578.84;;;24.93;53.07
69214;BME280;56325;47.030;18.518;2022-08-03T06:28:29;100586.94;;;25.25;52.35
69214;BME280;56325;47.030;18.518;2022-08-03T06:31:52;100583.09;;;25.43;51.93
69214;BME280;56325;47.030;18.518;2022-08-03T06:34:55;100592.03;;;25.62;51.44
69214;BME280;56325;47.030;18.518;2022-08-03T06:38:04;100589.16;;;25.83;50.75
69214;BME280;56325;47.030;18.518;2022-08-03T06:41:08;100597.81;;;26.00;50.83
69214;BME280;56325;47.030;18.518;2022-08-03T06:44:11;100605.66;;;26.38;49.95
69214;BME280;56325;47.030;18.518;2022-08-03T06:47:36;100607.91;;;26.39;49.42
69214;BME280;56325;47.030;18.518;2022-08-03T06:51:01;100596.81;;;26.34;49.77
69214;BME280;56325;47.030;18.518;2022-08-03T06:54:10;100601.75;;;26.56;49.35
69214;BME280;56325;47.030;18.518;2022-08-03T06:57:14;100600.63;;;26.59;48.77
69214;BME280;56325;47.030;18.518;2022-08-03T07:00:38;100599.66;;;26.87;48.61
69214;BME280;56325;47.030;18.518;2022-08-03T07:03:42;100606.28;;;26.97;48.08
69214;BME280;56325;47.030;18.518;2022-08-03T07:32:14;100600.25;;;28.19;45.08
69214;BME280;56325;47.030;18.518;2022-08-03T07:35:52;100595.34;;;28.52;43.77
69214;BME280;56325;47.030;18.518;2022-08-03T07:39:30;100599.56;;;28.44;44.00
69214;BME280;56325;47.030;18.518;2022-08-03T07:42:52;100599.19;;;28.64;43.21
69214;BME280;56325;47.030;18.518;2022-08-03T07:45:55;100595.63;;;28.64;43.59
69214;BME280;56325;47.030;18.518;2022-08-03T07:49:05;100601.41;;;28.73;43.52
69214;BME280;56325;47.030;18.518;2022-08-03T07:52:39;100609.03;;;28.63;43.27
69214;BME280;56325;47.030;18.518;2022-08-03T07:56:36;100592.69;;;28.54;43.43
69214;BME280;56325;47.030;18.518;2022-08-03T07:59:45;100597.06;;;28.72;43.16
69214;BME280;56325;47.030;18.518;2022-08-03T08:02:59;100600.59;;;28.81;42.52
69214;BME280;56325;47.030;18.518;2022-08-03T08:06:03;100594.81;;;28.96;42.66
69214;BME280;56325;47.030;18.518;2022-08-03T08:09:11;100594.16;;;29.05;42.30
69214;BME280;56325;47.030;18.518;2022-08-03T08:12:37;100595.84;;;29.08;42.18
69214;BME280;56325;47.030;18.518;2022-08-03T08:15:42;100603.28;;;29.21;42.36
69214;BME280;56325;47.030;18.518;2022-08-03T08:18:48;100605.69;;;29.24;42.05
69214;BME280;56325;47.030;18.518;2022-08-03T08:21:52;100600.19;;;29.26;41.11
69214;BME280;56325;47.030;18.518;2022-08-03T08:25:05;100598.53;;;29.41;40.90
69214;BME280;56325;47.030;18.518;2022-08-03T08:28:09;100596.53;;;29.51;40.68
69214;BME280;56325;47.030;18.518;2022-08-03T08:31:33;100592.87;;;29.41;41.09
69214;BME280;56325;47.030;18.518;2022-08-03T08:34:35;100602.53;;;29.20;40.66
69214;BME280;56325;47.030;18.518;2022-08-03T08:37:39;100596.25;;;29.04;40.51
69214;BME280;56325;47.030;18.518;2022-08-03T08:40:44;100591.03;;;29.35;39.98
69214;BME280;56325;47.030;18.518;2022-08-03T08:43:53;100593.78;;;29.60;39.90
69214;BME280;56325;47.030;18.518;2022-08-03T08:47:01;100584.44;;;29.33;40.33
69214;BME280;56325;47.030;18.518;2022-08-03T08:50:08;100591.94;;;29.55;39.93
69214;BME280;56325;47.030;18.518;2022-08-03T08:53:30;100584.41;;;30.02;38.78
69214;BME280;56325;47.030;18.518;2022-08-03T08:56:35;100587.62;;;30.16;38.13
69214;BME280;56325;47.030;18.518;2022-08-03T08:59:40;100581.03;;;30.13;38.46
69214;BME280;56325;47.030;18.518;2022-08-03T09:02:51;100592.06;;;30.09;38.24
69214;BME280;56325;47.030;18.518;2022-08-03T09:06:02;100588.72;;;29.42;39.31
69214;BME280;56325;47.030;18.518;2022-08-03T09:09:08;100580.97;;;30.04;38.46
69214;BME280;56325;47.030;18.518;2022-08-03T09:12:52;100582.00;;;30.25;38.04
69214;BME280;56325;47.030;18.518;2022-08-03T09:19:15;100581.62;;;30.12;38.94
69214;BME280;56325;47.030;18.518;2022-08-03T09:22:21;100570.59;;;30.52;37.61
69214;BME280;56325;47.030;18.518;2022-08-03T09:28:37;100575.94;;;30.85;36.00
69214;BME280;56325;47.030;18.518;2022-08-03T09:32:02;100577.59;;;30.51;35.27
69214;BME280;56325;47.030;18.518;2022-08-03T09:35:06;100573.81;;;30.29;35.89
69214;BME280;56325;47.030;18.518;2022-08-03T09:38:21;100564.25;;;30.71;35.07
69214;BME280;56325;47.030;18.518;2022-08-03T09:41:29;100570.53;;;30.70;34.56
69214;BME280;56325;47.030;18.518;2022-08-03T09:44:34;100564.72;;;30.77;34.29
69214;BME280;56325;47.030;18.518;2022-08-03T09:47:38;100568.34;;;30.97;34.25
69214;BME280;56325;47.030;18.518;2022-08-03T09:50:51;100573.75;;;31.12;34.54
69214;BME280;56325;47.030;18.518;2022-08-03T09:54:29;100562.13;;;31.18;34.60
69214;BME280;56325;47.030;18.518;2022-08-03T09:58:05;100567.72;;;30.79;35.12
69214;BME280;56325;47.030;18.518;2022-08-03T10:01:09;100555.84;;;31.19;34.30
69214;BME280;56325;47.030;18.518;2022-08-03T10:04:29;100552.56;;;31.13;33.45
69214;BME280;56325;47.030;18.518;2022-08-03T10:07:44;100554.00;;;30.95;32.87
69214;BME280;56325;47.030;18.518;2022-08-03T10:10:51;100551.19;;;31.14;32.67
69214;BME280;56325;47.030;18.518;2022-08-03T10:13:56;100546.25;;;31.44;32.51
69214;BME280;56325;47.030;18.518;2022-08-03T10:17:04;100549.69;;;31.23;31.82
69214;BME280;56325;47.030;18.518;2022-08-03T10:20:19;100548.16;;;30.93;33.34
69214;BME280;56325;47.030;18.518;2022-08-03T10:23:24;100537.25;;;30.07;34.47
69214;BME280;56325;47.030;18.518;2022-08-03T10:26:30;100541.19;;;29.94;35.05
69214;BME280;56325;47.030;18.518;2022-08-03T10:29:40;100538.09;;;29.99;32.75
69214;BME280;56325;47.030;18.518;2022-08-03T10:33:23;100523.41;;;30.11;33.10
69214;BME280;56325;47.030;18.518;2022-08-03T10:36:51;100530.47;;;30.65;32.02
69214;BME280;56325;47.030;18.518;2022-08-03T10:39:59;100519.66;;;31.20;31.52
69214;BME280;56325;47.030;18.518;2022-08-03T10:43:06;100519.34;;;31.25;31.85
69214;BME280;56325;47.030;18.518;2022-08-03T10:46:19;100515.75;;;31.35;30.65
69214;BME280;56325;47.030;18.518;2022-08-03T10:49:40;100514.34;;;31.65;30.97
69214;BME280;56325;47.030;18.518;2022-08-03T10:53:07;100516.78;;;31.49;30.75
69214;BME280;56325;47.030;18.518;2022-08-03T10:59:58;100507.53;;;31.29;30.59
69214;BME280;56325;47.030;18.518;2022-08-03T11:03:14;100507.38;;;31.37;30.93
69214;BME280;56325;47.030;18.518;2022-08-03T11:06:24;100495.03;;;31.82;30.44
69214;BME280;56325;47.030;18.518;2022-08-03T11:09:43;100496.88;;;31.68;29.48
69214;BME280;56325;47.030;18.518;2022-08-03T11:12:50;100501.78;;;30.61;30.54
69214;BME280;56325;47.030;18.518;2022-08-03T11:15:55;100503.47;;;30.28;30.53
69214;BME280;56325;47.030;18.518;2022-08-03T11:19:08;100495.84;;;30.86;30.72
69214;BME280;56325;47.030;18.518;2022-08-03T11:22:14;100486.59;;;31.24;30.08
69214;BME280;56325;47.030;18.518;2022-08-03T11:25:18;100482.19;;;31.62;30.20
69214;BME280;56325;47.030;18.518;2022-08-03T11:28:43;100477.13;;;31.70;28.85
69214;BME280;56325;47.030;18.518;2022-08-03T11:31:49;100473.44;;;31.99;28.24
69214;BME280;56325;47.030;18.518;2022-08-03T11:35:15;100472.22;;;32.02;27.07
69214;BME280;56325;47.030;18.518;2022-08-03T11:38:18;100470.34;;;32.16;27.83
69214;BME280;56325;47.030;18.518;2022-08-03T11:41:32;100473.59;;;32.22;28.29
69214;BME280;56325;47.030;18.518;2022-08-03T11:44:58;100467.13;;;32.31;27.69
69214;BME280;56325;47.030;18.518;2022-08-03T11:48:21;100477.16;;;32.32;27.33
69214;BME280;56325;47.030;18.518;2022-08-03T11:51:29;100463.53;;;32.31;27.45
69214;BME280;56325;47.030;18.518;2022-08-03T11:54:34;100459.19;;;32.82;26.32
69214;BME280;56325;47.030;18.518;2022-08-03T11:57:38;100453.56;;;33.05;26.06
69214;BME280;56325;47.030;18.518;2022-08-03T12:01:04;100450.66;;;32.82;26.11
69214;BME280;56325;47.030;18.518;2022-08-03T12:04:13;100439.50;;;32.43;26.54
69214;BME280;56325;47.030;18.518;2022-08-03T12:07:24;100439.22;;;32.39;26.98
69214;BME280;56325;47.030;18.518;2022-08-03T12:10:50;100441.41;;;32.19;26.89
69214;BME280;56325;47.030;18.518;2022-08-03T12:13:53;100435.75;;;31.88;27.54
69214;BME280;56325;47.030;18.518;2022-08-03T12:17:17;100450.59;;;31.77;27.94
69214;BME280;56325;47.030;18.518;2022-08-03T12:20:26;100439.53;;;31.81;27.95
69214;BME280;56325;47.030;18.518;2022-08-03T12:23:37;100448.91;;;31.93;27.77
69214;BME280;56325;47.030;18.518;2022-08-03T12:26:46;100438.84;;;32.02;27.96
69214;BME280;56325;47.030;18.518;2022-08-03T12:30:04;100442.00;;;31.97;28.50
69214;BME280;56325;47.030;18.518;2022-08-03T12:36:56;100433.22;;;32.14;26.93
69214;BME280;56325;47.030;18.518;2022-08-03T12:40:02;100415.63;;;32.27;26.82
69214;BME280;56325;47.030;18.518;2022-08-03T12:43:13;100419.09;;;32.47;26.79
69214;BME280;56325;47.030;18.518;2022-08-03T12:46:17;100423.31;;;32.15;26.88
69214;BME280;56325;47.030;18.518;2022-08-03T12:49:21;100421.47;;;32.72;27.10
69214;BME280;56325;47.030;18.518;2022-08-03T12:52:23;100407.84;;;32.92;25.94
69214;BME280;56325;47.030;18.518;2022-08-03T12:55:41;100408.22;;;32.98;26.12
69214;BME280;56325;47.030;18.518;2022-08-03T12:59:24;100403.78;;;33.06;26.37
69214;BME280;56325;47.030;18.518;2022-08-03T13:02:38;100404.50;;;32.95;25.43
69214;BME280;56325;47.030;18.518;2022-08-03T13:05:47;100402.50;;;32.98;25.61
69214;BME280;56325;47.030;18.518;2022-08-03T13:09:06;100409.16;;;32.79;25.16
69214;BME280;56325;47.030;18.518;2022-08-03T13:12:12;100404.06;;;32.77;24.40
69214;BME280;56325;47.030;18.518;2022-08-03T13:15:16;100397.13;;;33.13;24.59
69214;BME280;56325;47.030;18.518;2022-08-03T13:18:19;100380.91;;;33.28;25.17
69214;BME280;56325;47.030;18.518;2022-08-03T13:21:32;100381.47;;;33.36;25.07
69214;BME280;56325;47.030;18.518;2022-08-03T13:25:27;100378.00;;;33.49;24.81
69214;BME280;56325;47.030;18.518;2022-08-03T13:28:32;100376.00;;;33.40;24.31
69214;BME280;56325;47.030;18.518;2022-08-03T13:31:35;100372.56;;;33.08;23.29
69214;BME280;56325;47.030;18.518;2022-08-03T13:34:52;100377.59;;;32.86;23.49
69214;BME280;56325;47.030;18.518;2022-08-03T13:37:55;100364.62;;;33.07;24.03
69214;BME280;56325;47.030;18.518;2022-08-03T13:41:18;100366.03;;;33.17;23.92
69214;BME280;56325;47.030;18.518;2022-08-03T13:44:34;100361.91;;;33.09;24.17
69214;BME280;56325;47.030;18.518;2022-08-03T13:48:00;100363.50;;;32.67;24.45
69214;BME280;56325;47.030;18.518;2022-08-03T13:51:23;100363.72;;;32.59;24.46
69214;BME280;56325;47.030;18.518;2022-08-03T13:54:26;100364.12;;;32.66;24.37
69214;BME280;56325;47.030;18.518;2022-08-03T13:57:34;100350.00;;;32.89;24.29
69214;BME280;56325;47.030;18.518;2022-08-03T14:00:58;100356.06;;;32.83;23.94
69214;BME280;56325;47.030;18.518;2022-08-03T14:04:02;100346.50;;;32.79;24.41
69214;BME280;56325;47.030;18.518;2022-08-03T14:07:07;100349.53;;;32.71;24.61
69214;BME280;56325;47.030;18.518;2022-08-03T14:10:13;100342.81;;;32.88;24.49
69214;BME280;56325;47.030;18.518;2022-08-03T14:13:17;100343.19;;;32.94;24.50
69214;BME280;56325;47.030;18.518;2022-08-03T14:16:21;100341.97;;;33.09;24.45
69214;BME280;56325;47.030;18.518;2022-08-03T14:19:24;100349.88;;;32.87;24.40
69214;BME280;56325;47.030;18.518;2022-08-03T14:22:34;100345.06;;;33.01;24.25
69214;BME280;56325;47.030;18.518;2022-08-03T14:25:37;100341.59;;;32.91;23.63
69214;BME280;56325;47.030;18.518;2022-08-03T14:28:54;100330.81;;;33.01;23.46
69214;BME280;56325;47.030;18.518;2022-08-03T14:31:57;100329.72;;;33.06;24.26
69214;BME280;56325;47.030;18.518;2022-08-03T14:35:15;100326.53;;;33.23;24.27
69214;BME280;56325;47.030;18.518;2022-08-03T14:38:19;100324.16;;;33.20;24.05
69214;BME280;56325;47.030;18.518;2022-08-03T14:41:23;100329.22;;;33.10;23.47
69214;BME280;56325;47.030;18.518;2022-08-03T14:44:26;100317.47;;;32.71;22.85
69214;BME280;56325;47.030;18.518;2022-08-03T14:47:44;100321.75;;;32.60;22.24
69214;BME280;56325;47.030;18.518;2022-08-03T14:51:07;100321.78;;;32.17;23.07
69214;BME280;56325;47.030;18.518;2022-08-03T14:54:10;100309.59;;;32.26;23.20
69214;BME280;56325;47.030;18.518;2022-08-03T14:57:13;100309.66;;;32.38;22.95
69214;BME280;56325;47.030;18.518;2022-08-03T15:00:18;100307.38;;;32.25;22.90
69214;BME280;56325;47.030;18.518;2022-08-03T15:03:43;100313.25;;;32.17;23.48
69214;BME280;56325;47.030;18.518;2022-08-03T15:06:48;100303.19;;;32.26;23.77
69214;BME280;56325;47.030;18.518;2022-08-03T15:09:53;100304.94;;;32.31;23.78
69214;BME280;56325;47.030;18.518;2022-08-03T15:13:37;100302.88;;;32.22;23.78
69214;BME280;56325;47.030;18.518;2022-08-03T15:16:39;100303.91;;;32.26;23.81
69214;BME280;56325;47.030;18.518;2022-08-03T15:19:43;100312.66;;;32.73;24.04
69214;BME280;56325;47.030;18.518;2022-08-03T15:23:06;100300.81;;;32.77;23.72
69214;BME280;56325;47.030;18.518;2022-08-03T15:26:10;100300.31;;;32.47;23.93
69214;BME280;56325;47.030;18.518;2022-08-03T15:33:17;100307.75;;;32.52;24.42
69214;BME280;56325;47.030;18.518;2022-08-03T15:36:40;100292.59;;;32.38;24.34
69214;BME280;56325;47.030;18.518;2022-08-03T15:43:45;100302.09;;;32.31;24.36
69214;BME280;56325;47.030;18.518;2022-08-03T17:20:27;100303.47;;;31.06;28.09
69214;BME280;56325;47.030;18.518;2022-08-03T17:24:09;100300.19;;;31.00;28.21
69214;BME280;56325;47.030;18.518;2022-08-03T17:27:42;100303.50;;;30.87;28.66
69214;BME280;56325;47.030;18.518;2022-08-03T17:31:17;100302.03;;;30.76;29.38
69214;BME280;56325;47.030;18.518;2022-08-03T17:34:33;100295.34;;;30.62;29.61
69214;BME280;56325;47.030;18.518;2022-08-03T17:37:36;100309.50;;;30.52;29.92
69214;BME280;56325;47.030;18.518;2022-08-03T17:40:59;100299.50;;;30.42;30.57
69214;BME280;56325;47.030;18.518;2022-08-03T17:44:14;100308.03;;;30.32;30.87
69214;BME280;56325;47.030;18.518;2022-08-03T17:47:37;100319.53;;;30.24;31.46
69214;BME280;56325;47.030;18.518;2022-08-03T17:50:50;100314.87;;;30.10;31.95
69214;BME280;56325;47.030;18.518;2022-08-03T17:57:52;100323.28;;;29.81;33.28
69214;BME280;56325;47.030;18.518;2022-08-03T18:01:07;100325.63;;;29.65;33.46
69214;BME280;56325;47.030;18.518;2022-08-03T18:05:02;100321.69;;;29.51;33.99
69214;BME280;56325;47.030;18.518;2022-08-03T18:11:28;100324.28;;;29.29;34.59
69214;BME280;56325;47.030;18.518;2022-08-03T18:14:54;100325.09;;;29.13;34.99
69214;BME280;56325;47.030;18.518;2022-08-03T18:18:05;100329.03;;;29.00;35.65
69214;BME280;56325;47.030;18.518;2022-08-03T18:21:13;100325.97;;;28.88;35.86
69214;BME280;56325;47.030;18.518;2022-08-03T18:24:19;100330.78;;;28.78;36.12
69214;BME280;56325;47.030;18.518;2022-08-03T18:27:26;100331.91;;;28.65;36.46
69214;BME280;56325;47.030;18.518;2022-08-03T18:30:50;100341.09;;;28.56;37.05
69214;BME280;56325;47.030;18.518;2022-08-03T18:33:57;100346.31;;;28.43;37.41
69214;BME280;56325;47.030;18.518;2022-08-03T18:37:23;100348.03;;;28.21;37.64
69214;BME280;56325;47.030;18.518;2022-08-03T18:40:27;100356.47;;;28.03;37.95
69214;BME280;56325;47.030;18.518;2022-08-03T18:43:39;100356.53;;;27.96;37.53
69214;BME280;56325;47.030;18.518;2022-08-03T18:47:34;100353.44;;;27.84;36.90
69214;BME280;56325;47.030;18.518;2022-08-03T18:51:04;100364.34;;;27.88;37.39
69214;BME280;56325;47.030;18.518;2022-08-03T18:54:22;100369.81;;;27.86;36.88
69214;BME280;56325;47.030;18.518;2022-08-03T18:58:14;100368.72;;;27.81;36.97
69214;BME280;56325;47.030;18.518;2022-08-03T19:01:40;100376.19;;;27.69;37.80
69214;BME280;56325;47.030;18.518;2022-08-03T19:05:06;100375.28;;;27.59;38.55
69214;BME280;56325;47.030;18.518;2022-08-03T19:08:19;100379.87;;;27.47;38.85
69214;BME280;56325;47.030;18.518;2022-08-03T19:11:39;100379.16;;;27.38;39.06
69214;BME280;56325;47.030;18.518;2022-08-03T19:15:08;100381.84;;;27.29;39.66
69214;BME280;56325;47.030;18.518;2022-08-03T19:18:23;100371.34;;;27.22;40.06
69214;BME280;56325;47.030;18.518;2022-08-03T19:21:49;100379.87;;;27.14;39.87